createdAt,value
2018-06-22T00:00:55.143Z,5.60
2018-06-22T00:03:24.135Z,7.20
2018-06-22T00:05:53.115Z,3.57
2018-06-22T00:08:21.983Z,6.57
2018-06-22T00:10:50.915Z,5.53
2018-06-22T00:13:19.853Z,4.77
2018-06-22T00:15:48.793Z,7.40
2018-06-22T00:18:17.761Z,7.57
2018-06-22T00:20:46.741Z,4.93
2018-06-22T00:23:15.772Z,6.30
2018-06-22T00:25:44.673Z,6.57
2018-06-22T00:28:13.581Z,10.00
2018-06-22T00:30:45.663Z,9.13
2018-06-22T00:33:14.584Z,8.77
2018-06-22T00:35:43.489Z,11.23
2018-06-22T00:38:12.524Z,7.37
2018-06-22T00:40:41.475Z,9.73
2018-06-22T00:43:10.372Z,5.03
2018-06-22T00:45:39.306Z,6.93
2018-06-22T00:48:08.248Z,7.83
2018-06-22T00:50:37.175Z,8.37
2018-06-22T00:53:16.279Z,5.30
2018-06-22T00:55:45.204Z,4.50
2018-06-22T00:58:14.152Z,4.60
2018-06-22T01:00:43.082Z,4.20
2018-06-22T01:03:11.995Z,4.97
2018-06-22T01:05:41.037Z,5.37
2018-06-22T01:08:10.287Z,5.80
2018-06-22T01:10:39.261Z,4.60
2018-06-22T01:13:08.301Z,5.60
2018-06-22T01:15:37.583Z,7.33
2018-06-22T01:18:06.617Z,6.73
2018-06-22T01:20:35.564Z,5.57
2018-06-22T01:23:04.493Z,7.67
2018-06-22T01:25:33.465Z,11.53
2018-06-22T01:28:02.357Z,8.43
2018-06-22T01:30:31.311Z,5.93
2018-06-22T01:33:00.267Z,5.40
2018-06-22T01:35:29.165Z,5.50
2018-06-22T01:37:58.202Z,8.37
2018-06-22T01:40:27.097Z,7.67
2018-06-22T01:42:55.987Z,8.70
2018-06-22T01:45:24.947Z,7.93
2018-06-22T01:47:53.833Z,9.23
2018-06-22T01:50:22.863Z,7.10
2018-06-22T01:52:51.795Z,4.90
2018-06-22T01:55:20.717Z,9.67
2018-06-22T01:57:49.623Z,7.10
2018-06-22T02:00:18.611Z,7.53
2018-06-22T02:02:47.516Z,3.77
2018-06-22T02:05:18.296Z,11.40
2018-06-22T02:07:47.208Z,9.17
2018-06-22T02:10:16.119Z,6.03
2018-06-22T02:12:45.062Z,6.73
2018-06-22T02:15:14.041Z,7.60
2018-06-22T02:17:42.931Z,4.27
2018-06-22T02:20:11.943Z,9.77
2018-06-22T02:22:40.869Z,6.57
2018-06-22T02:25:09.825Z,4.87
2018-06-22T02:27:38.875Z,5.60
2018-06-22T02:30:07.835Z,9.70
2018-06-22T02:32:36.770Z,5.33
2018-06-22T02:35:05.745Z,4.77
2018-06-22T02:37:34.674Z,9.70
2018-06-22T02:40:03.631Z,8.23
2018-06-22T02:42:32.581Z,10.57
2018-06-22T02:45:01.474Z,7.03
2018-06-22T02:47:30.397Z,8.63
2018-06-22T02:49:59.327Z,4.83
2018-06-22T02:52:28.277Z,5.87
2018-06-22T02:54:57.215Z,8.07
2018-06-22T02:57:26.130Z,5.13
2018-06-22T02:59:55.137Z,6.97
2018-06-22T03:02:24.092Z,4.93
2018-06-22T03:04:52.997Z,8.27
2018-06-22T03:07:22.383Z,8.40
2018-06-22T03:09:51.291Z,12.47
2018-06-22T03:12:20.207Z,5.10
2018-06-22T03:14:49.159Z,7.33
2018-06-22T03:17:18.059Z,7.63
2018-06-22T03:19:47.037Z,12.13
2018-06-22T03:22:15.952Z,6.00
2018-06-22T03:24:44.875Z,6.60
2018-06-22T03:27:13.785Z,6.37
2018-06-22T03:29:42.740Z,9.33
2018-06-22T03:32:11.731Z,10.63
2018-06-22T03:34:40.609Z,5.73
2018-06-22T03:37:09.583Z,6.00
2018-06-22T03:39:38.492Z,6.27
2018-06-22T03:42:07.495Z,6.87
2018-06-22T03:44:36.453Z,6.70
2018-06-22T03:47:05.383Z,6.93
2018-06-22T03:49:34.290Z,8.63
2018-06-22T03:52:03.235Z,7.43
2018-06-22T03:54:32.223Z,9.30
2018-06-22T03:57:01.147Z,7.40
2018-06-22T03:59:30.070Z,10.23
2018-06-22T04:01:58.997Z,6.93
2018-06-22T04:04:27.917Z,10.83
2018-06-22T04:06:56.864Z,7.77
2018-06-22T04:09:25.767Z,8.17
2018-06-22T04:11:54.800Z,11.83
2018-06-22T04:14:23.723Z,8.87
2018-06-22T04:16:52.635Z,7.63
2018-06-22T04:19:21.603Z,8.73
2018-06-22T04:21:50.518Z,4.43
2018-06-22T04:24:19.431Z,5.83
2018-06-22T04:26:49.417Z,6.03
2018-06-22T04:29:19.719Z,10.27
2018-06-22T04:31:48.679Z,7.90
2018-06-22T04:34:17.619Z,9.17
2018-06-22T04:36:46.549Z,8.23
2018-06-22T04:39:15.564Z,9.80
2018-06-22T04:41:44.486Z,9.47
2018-06-22T04:44:13.413Z,4.63
2018-06-22T04:46:42.346Z,10.80
2018-06-22T04:49:11.307Z,8.60
2018-06-22T04:51:40.194Z,6.73
2018-06-22T04:54:09.195Z,8.63
2018-06-22T04:56:38.134Z,8.40
2018-06-22T04:59:07.063Z,7.70
2018-06-22T05:01:35.994Z,8.93
2018-06-22T05:04:04.942Z,10.80
2018-06-22T05:06:33.855Z,10.03
2018-06-22T05:09:03.661Z,7.40
2018-06-22T05:11:32.604Z,12.10
2018-06-22T05:14:01.578Z,9.43
2018-06-22T05:16:30.572Z,12.03
2018-06-22T05:18:59.582Z,7.57
2018-06-22T05:21:28.511Z,9.73
2018-06-22T05:23:57.497Z,10.80
2018-06-22T05:26:26.470Z,9.57
2018-06-22T05:28:55.370Z,11.47
2018-06-22T05:31:24.338Z,17.37
2018-06-22T05:33:53.329Z,12.13
2018-06-22T05:36:22.282Z,16.30
2018-06-22T05:38:51.251Z,9.07
2018-06-22T05:41:20.215Z,13.37
2018-06-22T05:43:49.168Z,11.27
2018-06-22T05:46:18.074Z,11.73
2018-06-22T05:48:47.006Z,10.33
2018-06-22T05:51:15.955Z,14.20
2018-06-22T05:53:44.907Z,13.50
2018-06-22T05:56:13.835Z,10.30
2018-06-22T05:58:42.831Z,9.43
2018-06-22T06:01:11.720Z,15.67
2018-06-22T06:03:40.599Z,15.70
2018-06-22T06:06:09.539Z,11.20
2018-06-22T06:08:38.458Z,6.63
2018-06-22T06:11:07.706Z,9.93
2018-06-22T06:13:36.585Z,7.23
2018-06-22T06:16:05.693Z,8.87
2018-06-22T06:18:34.665Z,14.20
2018-06-22T06:21:03.667Z,9.47
2018-06-22T06:23:32.596Z,12.40
2018-06-22T06:26:01.566Z,13.83
2018-06-22T06:28:30.498Z,11.00
2018-06-22T06:30:59.480Z,10.07
2018-06-22T06:33:28.467Z,19.10
2018-06-22T06:35:57.378Z,11.97
2018-06-22T06:38:26.371Z,11.67
2018-06-22T06:40:55.346Z,14.50
2018-06-22T06:43:24.272Z,12.07
2018-06-22T06:45:53.238Z,21.53
2018-06-22T06:48:22.231Z,17.07
2018-06-22T06:50:51.254Z,14.27
2018-06-22T06:53:20.184Z,13.03
2018-06-22T06:55:49.112Z,16.57
2018-06-22T06:58:18.177Z,11.23
2018-06-22T07:00:47.124Z,19.20
2018-06-22T07:03:16.029Z,12.53
2018-06-22T07:05:44.988Z,15.40
2018-06-22T07:08:13.948Z,22.53
2018-06-22T07:10:42.886Z,15.10
2018-06-22T07:13:11.832Z,18.37
2018-06-22T07:15:41.738Z,15.43
2018-06-22T07:18:10.954Z,14.07
2018-06-22T07:20:46.567Z,15.17
2018-06-22T07:23:15.498Z,12.67
2018-06-22T07:25:44.415Z,13.33
2018-06-22T07:28:13.366Z,15.13
2018-06-22T07:30:42.396Z,16.63
2018-06-22T07:33:11.600Z,12.83
2018-06-22T07:35:40.688Z,16.03
2018-06-22T07:38:09.674Z,17.10
2018-06-22T07:40:38.650Z,12.97
2018-06-22T07:43:07.588Z,11.47
2018-06-22T07:45:36.594Z,14.07
2018-06-22T07:48:05.672Z,9.80
2018-06-22T07:50:34.669Z,10.90
2018-06-22T07:53:03.605Z,9.13
2018-06-22T07:55:32.548Z,11.33
2018-06-22T07:58:02.021Z,14.93
2018-06-22T08:00:32.951Z,10.53
2018-06-22T08:03:02.033Z,11.13
2018-06-22T08:05:32.985Z,16.67
2018-06-22T08:08:02.013Z,12.83
2018-06-22T08:10:31.012Z,16.37
2018-06-22T08:12:59.954Z,16.83
2018-06-22T08:15:29.909Z,13.27
2018-06-22T08:17:58.828Z,16.83
2018-06-22T08:20:27.827Z,12.60
2018-06-22T08:22:56.775Z,7.80
2018-06-22T08:25:25.961Z,14.67
2018-06-22T08:27:54.877Z,8.63
2018-06-22T08:30:23.884Z,12.37
2018-06-22T08:32:52.836Z,19.63
2018-06-22T08:35:21.767Z,13.17
2018-06-22T08:37:50.771Z,13.50
2018-06-22T08:40:19.703Z,12.23
2018-06-22T08:42:48.684Z,15.27
2018-06-22T08:45:17.653Z,13.57
2018-06-22T08:47:46.587Z,9.20
2018-06-22T08:50:15.525Z,14.83
2018-06-22T08:52:44.457Z,16.53
2018-06-22T08:55:17.044Z,12.93
2018-06-22T08:57:46.013Z,9.03
2018-06-22T09:00:14.987Z,13.47
2018-06-22T09:02:44.899Z,6.50
2018-06-22T09:05:13.854Z,5.83
2018-06-22T09:07:42.848Z,5.30
2018-06-22T09:10:11.786Z,7.20
2018-06-22T09:12:40.814Z,4.87
2018-06-22T09:15:10.774Z,7.93
2018-06-22T09:17:39.731Z,4.40
2018-06-22T09:20:08.659Z,6.50
2018-06-22T09:22:37.572Z,4.93
2018-06-22T09:25:06.618Z,7.80
2018-06-22T09:27:35.546Z,15.37
2018-06-22T09:30:04.884Z,11.23
2018-06-22T09:32:34.226Z,10.47
2018-06-22T09:35:03.304Z,11.27
2018-06-22T09:37:32.334Z,9.27
2018-06-22T09:40:01.248Z,5.73
2018-06-22T09:42:33.605Z,5.73
2018-06-22T09:45:02.543Z,11.17
2018-06-22T09:47:31.638Z,9.13
2018-06-22T09:50:00.838Z,11.30
2018-06-22T09:52:29.819Z,12.83
2018-06-22T09:54:59.242Z,11.20
2018-06-22T09:57:28.211Z,8.07
2018-06-22T09:59:57.177Z,8.43
2018-06-22T10:02:26.156Z,9.33
2018-06-22T10:04:55.349Z,9.87
2018-06-22T10:07:25.290Z,4.40
2018-06-22T10:09:54.426Z,16.10
2018-06-22T10:12:23.389Z,11.97
2018-06-22T10:14:52.367Z,7.20
2018-06-22T10:17:21.344Z,5.63
2018-06-22T10:19:50.305Z,9.53
2018-06-22T10:22:19.274Z,9.63
2018-06-22T10:24:48.317Z,12.30
2018-06-22T10:27:17.284Z,7.40
2018-06-22T10:29:46.381Z,15.03
2018-06-22T10:32:15.777Z,12.03
2018-06-22T10:34:44.705Z,9.00
2018-06-22T10:37:14.764Z,10.30
2018-06-22T10:39:43.782Z,9.50
2018-06-22T10:42:12.824Z,9.70
2018-06-22T10:44:41.787Z,10.93
2018-06-22T10:47:10.779Z,7.07
2018-06-22T10:49:40.725Z,7.43
2018-06-22T10:52:09.938Z,8.73
2018-06-22T10:54:38.915Z,8.73
2018-06-22T10:57:07.884Z,8.63
2018-06-22T10:59:36.991Z,12.50
2018-06-22T11:02:11.677Z,15.13
2018-06-22T11:04:40.901Z,11.20
2018-06-22T11:07:09.895Z,10.07
2018-06-22T11:09:38.888Z,11.83
2018-06-22T11:12:07.860Z,9.70
2018-06-22T11:14:36.795Z,14.50
2018-06-22T11:17:05.853Z,12.43
2018-06-22T11:19:34.756Z,9.97
2018-06-22T11:22:03.865Z,8.60
2018-06-22T11:24:33.037Z,9.27
2018-06-22T11:27:02.029Z,9.97
2018-06-22T11:29:31.024Z,9.93
2018-06-22T11:32:00.056Z,11.93
2018-06-22T11:34:29.026Z,8.83
2018-06-22T11:36:58.039Z,9.30
2018-06-22T11:39:27.079Z,9.70
2018-06-22T11:41:55.970Z,14.30
2018-06-22T11:44:25.013Z,9.53
2018-06-22T11:46:53.992Z,8.13
2018-06-22T11:49:22.959Z,11.67
2018-06-22T11:51:51.869Z,10.47
2018-06-22T11:54:23.998Z,9.73
2018-06-22T11:56:52.932Z,10.10
2018-06-22T11:59:21.877Z,9.87
2018-06-22T12:01:50.874Z,8.37
2018-06-22T12:04:19.792Z,7.63
2018-06-22T12:06:48.986Z,7.13
2018-06-22T12:09:17.931Z,9.00
2018-06-22T12:11:46.822Z,4.87
2018-06-22T12:14:15.768Z,13.17
2018-06-22T12:16:44.693Z,9.57
2018-06-22T12:19:13.719Z,7.07
2018-06-22T12:21:42.570Z,12.27
2018-06-22T12:24:11.572Z,12.47
2018-06-22T12:26:40.527Z,9.63
2018-06-22T12:29:09.443Z,9.50
2018-06-22T12:31:38.410Z,12.57
2018-06-22T12:34:07.459Z,11.67
2018-06-22T12:36:36.843Z,10.17
2018-06-22T12:39:09.355Z,17.23
2018-06-22T12:41:38.300Z,9.93
2018-06-22T12:44:07.276Z,8.83
2018-06-22T12:46:36.429Z,14.57
2018-06-22T12:49:05.500Z,19.53
2018-06-22T12:51:34.419Z,11.80
2018-06-22T12:54:03.386Z,6.03
2018-06-22T12:56:32.362Z,9.00
2018-06-22T12:59:01.274Z,10.40
2018-06-22T13:01:30.169Z,9.40
2018-06-22T13:03:59.188Z,12.50
2018-06-22T13:06:28.089Z,7.30
2018-06-22T13:08:57.078Z,12.00
2018-06-22T13:11:26.107Z,11.90
2018-06-22T13:13:55.078Z,12.50
2018-06-22T13:16:24.119Z,7.67
2018-06-22T13:18:53.132Z,5.80
2018-06-22T13:21:22.100Z,8.07
2018-06-22T13:23:51.056Z,12.43
2018-06-22T13:26:19.990Z,11.90
2018-06-22T13:28:52.824Z,8.70
2018-06-22T13:31:21.867Z,4.87
2018-06-22T13:33:50.797Z,10.93
2018-06-22T13:36:19.853Z,5.83
2018-06-22T13:38:48.785Z,7.63
2018-06-22T13:41:17.732Z,11.90
2018-06-22T13:43:47.724Z,16.43
2018-06-22T13:46:16.716Z,14.93
2018-06-22T13:48:45.656Z,18.27
2018-06-22T13:51:15.481Z,16.77
2018-06-22T13:53:44.565Z,8.33
2018-06-22T13:56:13.500Z,10.77
2018-06-22T13:58:42.501Z,12.23
2018-06-22T14:01:11.478Z,18.47
2018-06-22T14:03:44.569Z,13.07
2018-06-22T14:06:18.933Z,19.57
2018-06-22T14:08:47.951Z,10.07
2018-06-22T14:11:16.931Z,11.13
2018-06-22T14:13:45.945Z,15.40
2018-06-22T14:16:14.959Z,15.83
2018-06-22T14:18:45.233Z,10.90
2018-06-22T14:21:14.168Z,9.43
2018-06-22T14:23:43.130Z,15.00
2018-06-22T14:26:12.140Z,16.77
2018-06-22T14:28:41.051Z,10.43
2018-06-22T14:31:10.014Z,21.03
2018-06-22T14:33:38.950Z,13.57
2018-06-22T14:36:08.486Z,13.53
2018-06-22T14:38:37.451Z,18.47
2018-06-22T14:41:06.537Z,13.93
2018-06-22T14:43:35.565Z,16.90
2018-06-22T14:46:04.640Z,18.63
2018-06-22T14:48:33.634Z,15.07
2018-06-22T14:51:02.578Z,16.00
2018-06-22T14:53:37.753Z,19.53
2018-06-22T14:56:11.961Z,23.43
2018-06-22T14:58:46.246Z,18.90
2018-06-22T15:01:20.399Z,15.87
2018-06-22T15:03:57.905Z,13.17
2018-06-22T15:06:32.174Z,13.50
2018-06-22T15:09:01.240Z,21.27
2018-06-22T15:11:30.202Z,20.57
2018-06-22T15:13:59.147Z,16.97
2018-06-22T15:16:28.161Z,12.13
2018-06-22T15:18:58.166Z,13.07
2018-06-22T15:21:27.169Z,15.10
2018-06-22T15:23:58.231Z,13.77
2018-06-22T15:26:27.265Z,14.50
2018-06-22T15:28:56.250Z,12.07
2018-06-22T15:31:25.383Z,16.33
2018-06-22T15:33:59.627Z,10.33
2018-06-22T15:36:33.862Z,11.63
2018-06-22T15:39:08.033Z,12.43
2018-06-22T15:41:42.309Z,22.07
2018-06-22T15:44:19.684Z,16.73
2018-06-22T15:46:54.000Z,21.77
2018-06-22T15:49:28.385Z,22.17
2018-06-22T15:52:02.714Z,15.43
2018-06-22T15:54:36.952Z,16.60
2018-06-22T15:57:06.153Z,16.83
2018-06-22T15:59:35.090Z,12.43
2018-06-22T16:02:12.997Z,14.17
2018-06-22T16:04:42.213Z,12.57
2018-06-22T16:07:11.260Z,15.23
2018-06-22T16:09:45.432Z,14.23
2018-06-22T16:12:19.692Z,17.80
2018-06-22T16:14:53.890Z,15.77
2018-06-22T16:17:28.192Z,10.67
2018-06-22T16:20:02.564Z,13.13
2018-06-22T16:22:37.933Z,15.07
2018-06-22T16:25:12.292Z,15.40
2018-06-22T16:27:43.968Z,17.20
2018-06-22T16:30:12.968Z,14.40
2018-06-22T16:32:45.246Z,17.17
2018-06-22T16:35:17.890Z,15.40
2018-06-22T16:37:46.884Z,14.43
2018-06-22T16:40:16.114Z,16.53
2018-06-22T16:42:45.120Z,15.13
2018-06-22T16:45:14.321Z,14.67
2018-06-22T16:47:43.386Z,17.67
2018-06-22T16:50:15.965Z,14.17
2018-06-22T16:52:45.078Z,14.90
2018-06-22T16:55:17.227Z,17.63
2018-06-22T16:57:46.184Z,16.20
2018-06-22T17:00:15.235Z,18.47
2018-06-22T17:02:44.244Z,17.17
2018-06-22T17:05:13.136Z,13.57
2018-06-22T17:07:47.374Z,19.37
2018-06-22T17:11:25.533Z,15.23
2018-06-22T17:13:59.898Z,19.83
2018-06-22T17:16:34.323Z,23.93
2018-06-22T17:19:03.358Z,15.13
2018-06-22T17:21:32.302Z,12.27
2018-06-22T17:24:01.222Z,15.40
2018-06-22T17:26:30.196Z,12.87
2018-06-22T17:28:59.139Z,15.03
2018-06-22T17:31:28.169Z,18.53
2018-06-22T17:33:58.144Z,12.10
2018-06-22T17:36:27.222Z,15.53
2018-06-22T17:38:56.175Z,15.47
2018-06-22T17:41:25.164Z,10.67
2018-06-22T17:43:54.230Z,20.50
2018-06-22T17:46:23.242Z,15.97
2018-06-22T17:48:52.420Z,18.03
2018-06-22T17:51:21.383Z,17.23
2018-06-22T17:53:50.265Z,19.70
2018-06-22T17:56:25.580Z,17.80
2018-06-22T17:58:59.877Z,21.03
2018-06-22T18:01:34.610Z,18.17
2018-06-22T18:04:08.806Z,21.77
2018-06-22T18:06:43.162Z,23.33
2018-06-22T18:09:16.262Z,18.83
2018-06-22T18:11:50.677Z,17.47
2018-06-22T18:14:19.701Z,14.73
2018-06-22T18:16:48.744Z,16.47
2018-06-22T18:19:17.802Z,23.07
2018-06-22T18:21:46.860Z,21.67
2018-06-22T18:24:15.920Z,17.90
2018-06-22T18:26:44.938Z,22.67
2018-06-22T18:29:13.934Z,19.47
2018-06-22T18:31:42.892Z,19.33
2018-06-22T18:34:12.289Z,17.93
2018-06-22T18:36:41.238Z,15.20
2018-06-22T18:39:12.715Z,21.50
2018-06-22T18:41:41.860Z,29.43
2018-06-22T18:44:15.198Z,26.70
2018-06-22T18:46:44.484Z,12.87
2018-06-22T18:49:13.538Z,20.83
2018-06-22T18:51:42.706Z,26.77
2018-06-22T18:54:16.920Z,17.30
2018-06-22T18:56:51.314Z,14.57
2018-06-22T18:59:25.388Z,18.10
2018-06-22T19:01:59.632Z,22.57
2018-06-22T19:04:30.670Z,16.03
2018-06-22T19:06:59.666Z,16.47
2018-06-22T19:09:28.647Z,20.90
2018-06-22T19:11:57.592Z,19.67
2018-06-22T19:14:26.623Z,13.00
2018-06-22T19:16:55.566Z,20.47
2018-06-22T19:19:24.541Z,18.53
2018-06-22T19:21:53.576Z,16.67
2018-06-22T19:24:22.527Z,13.47
2018-06-22T19:26:51.527Z,17.07
2018-06-22T19:29:22.644Z,16.83
2018-06-22T19:31:51.519Z,21.53
2018-06-22T19:34:24.671Z,19.23
2018-06-22T19:36:54.034Z,14.37
2018-06-22T19:39:23.033Z,19.90
2018-06-22T19:41:52.059Z,11.90
2018-06-22T19:44:26.248Z,15.07
2018-06-22T19:47:00.665Z,15.50
2018-06-22T19:49:34.826Z,18.93
2018-06-22T19:52:09.064Z,13.63
2018-06-22T19:54:38.118Z,12.70
2018-06-22T19:57:07.005Z,15.67
2018-06-22T19:59:48.630Z,16.63
2018-06-22T20:02:17.925Z,16.63
2018-06-22T20:04:46.823Z,17.57
2018-06-22T20:07:15.811Z,16.63
2018-06-22T20:09:44.751Z,18.93
2018-06-22T20:12:13.756Z,21.80
2018-06-22T20:14:43.718Z,16.20
2018-06-22T20:17:12.652Z,13.50
2018-06-22T20:19:41.610Z,19.33
2018-06-22T20:22:10.740Z,17.87
2018-06-22T20:24:44.987Z,15.57
2018-06-22T20:27:13.921Z,17.40
2018-06-22T20:29:42.840Z,15.47
2018-06-22T20:32:14.634Z,19.70
2018-06-22T20:34:49.620Z,26.03
2018-06-22T20:37:23.939Z,17.80
2018-06-22T20:39:58.256Z,16.23
2018-06-22T20:42:32.478Z,13.60
2018-06-22T20:45:10.715Z,14.30
2018-06-22T20:48:50.747Z,15.73
2018-06-22T20:51:19.689Z,18.70
2018-06-22T20:53:48.617Z,12.43
2018-06-22T20:56:17.702Z,15.67
2018-06-22T20:58:46.577Z,21.23
2018-06-22T21:01:15.548Z,12.13
2018-06-22T21:03:44.528Z,14.87
2018-06-22T21:06:13.472Z,15.23
2018-06-22T21:08:42.424Z,23.10
2018-06-22T21:11:11.448Z,11.90
2018-06-22T21:13:40.404Z,13.70
2018-06-22T21:16:12.872Z,15.33
2018-06-22T21:18:41.877Z,15.23
2018-06-22T21:21:16.025Z,13.67
2018-06-22T21:23:44.940Z,15.50
2018-06-22T21:26:13.850Z,17.07
2018-06-22T21:28:48.014Z,16.90
2018-06-22T21:31:22.296Z,14.23
2018-06-22T21:33:56.651Z,16.83
2018-06-22T21:36:30.969Z,10.20
2018-06-22T21:39:01.900Z,11.90
2018-06-22T21:41:30.779Z,11.00
2018-06-22T21:44:00.583Z,14.67
2018-06-22T21:46:29.574Z,9.13
2018-06-22T21:48:58.509Z,16.00
2018-06-22T21:51:27.489Z,11.43
2018-06-22T21:53:56.436Z,14.10
2018-06-22T21:56:25.613Z,11.00
2018-06-22T21:58:54.630Z,17.03
2018-06-22T22:01:23.615Z,12.87
2018-06-22T22:03:52.618Z,11.00
2018-06-22T22:06:21.561Z,9.83
2018-06-22T22:08:50.514Z,15.67
2018-06-22T22:11:19.497Z,23.27
2018-06-22T22:13:48.495Z,14.83
2018-06-22T22:16:17.469Z,12.80
2018-06-22T22:18:46.381Z,14.27
2018-06-22T22:21:15.427Z,11.93
2018-06-22T22:23:44.308Z,8.27
2018-06-22T22:26:13.233Z,18.03
2018-06-22T22:28:42.193Z,18.10
2018-06-22T22:31:11.153Z,24.43
2018-06-22T22:33:40.067Z,18.97
2018-06-22T22:36:09.064Z,15.87
2018-06-22T22:38:38.026Z,9.37
2018-06-22T22:41:07.043Z,12.73
2018-06-22T22:43:36.108Z,8.37
2018-06-22T22:46:05.150Z,12.57
2018-06-22T22:48:34.071Z,10.93
2018-06-22T22:51:04.042Z,16.80
2018-06-22T22:53:32.962Z,15.50
2018-06-22T22:56:01.907Z,14.93
2018-06-22T22:58:30.901Z,16.00
2018-06-22T23:00:59.863Z,18.90
2018-06-22T23:03:28.957Z,12.67
2018-06-22T23:05:57.918Z,11.93
2018-06-22T23:08:26.897Z,17.97
2018-06-22T23:10:55.992Z,14.43
2018-06-22T23:13:24.978Z,13.03
2018-06-22T23:15:53.922Z,14.53
2018-06-22T23:18:25.929Z,14.23
2018-06-22T23:20:54.857Z,20.77
2018-06-22T23:23:37.860Z,13.50
2018-06-22T23:26:07.078Z,11.40
2018-06-22T23:28:36.051Z,11.43
2018-06-22T23:31:06.076Z,13.30
2018-06-22T23:33:35.099Z,11.97
2018-06-22T23:36:04.788Z,15.53
2018-06-22T23:38:34.192Z,14.60
2018-06-22T23:41:03.160Z,13.23
2018-06-22T23:43:33.155Z,9.17
2018-06-22T23:46:02.196Z,18.07
2018-06-22T23:48:31.126Z,19.03
2018-06-22T23:51:00.173Z,16.23
2018-06-22T23:53:29.128Z,11.13
2018-06-22T23:55:58.111Z,16.17
2018-06-22T23:58:27.047Z,13.00
